sensor_id;sensor_type;location;lat;lon;timestamp;temperature;humidity
39453;DHT22;25154;-33.684;151.102;2022-11-15T00:04:35;23.10;95.50
39453;DHT22;25154;-33.684;151.102;2022-11-15T00:09:37;22.80;94.60
39453;DHT22;25154;-33.684;151.102;2022-11-15T00:14:40;22.60;95.60
39453;DHT22;25154;-33.684;151.102;2022-11-15T00:19:45;23.40;95.70
39453;DHT22;25154;-33.684;151.102;2022-11-15T00:24:47;23.70;94.60
39453;DHT22;25154;-33.684;151.102;2022-11-15T00:29:49;23.30;94.20
39453;DHT22;25154;-33.684;151.102;2022-11-15T00:34:52;23.30;94.60
39453;DHT22;25154;-33.684;151.102;2022-11-15T00:39:54;23.20;93.90
39453;DHT22;25154;-33.684;151.102;2022-11-15T00:44:58;24.10;93.30
39453;DHT22;25154;-33.684;151.102;2022-11-15T00:50:00;24.00;93.40
39453;DHT22;25154;-33.684;151.102;2022-11-15T00:55:02;24.00;94.90
39453;DHT22;25154;-33.684;151.102;2022-11-15T01:00:05;23.50;95.10
39453;DHT22;25154;-33.684;151.102;2022-11-15T01:05:08;23.10;94.70
39453;DHT22;25154;-33.684;151.102;2022-11-15T01:10:11;22.90;94.50
39453;DHT22;25154;-33.684;151.102;2022-11-15T01:15:13;23.10;94.90
39453;DHT22;25154;-33.684;151.102;2022-11-15T01:20:15;23.10;95.80
39453;DHT22;25154;-33.684;151.102;2022-11-15T01:25:18;22.90;94.30
39453;DHT22;25154;-33.684;151.102;2022-11-15T01:30:20;22.80;94.90
39453;DHT22;25154;-33.684;151.102;2022-11-15T01:35:22;22.80;95.10
39453;DHT22;25154;-33.684;151.102;2022-11-15T01:40:27;24.40;94.20
39453;DHT22;25154;-33.684;151.102;2022-11-15T01:45:29;24.90;93.00
39453;DHT22;25154;-33.684;151.102;2022-11-15T01:50:33;26.20;92.20
39453;DHT22;25154;-33.684;151.102;2022-11-15T01:55:36;26.10;91.60
39453;DHT22;25154;-33.684;151.102;2022-11-15T02:00:39;25.90;93.70
39453;DHT22;25154;-33.684;151.102;2022-11-15T02:05:42;25.80;92.80
39453;DHT22;25154;-33.684;151.102;2022-11-15T02:10:46;26.30;92.10
39453;DHT22;25154;-33.684;151.102;2022-11-15T02:21:21;27.40;90.90
39453;DHT22;25154;-33.684;151.102;2022-11-15T02:32:31;26.00;89.60
39453;DHT22;25154;-33.684;151.102;2022-11-15T02:42:59;25.80;97.10
39453;DHT22;25154;-33.684;151.102;2022-11-15T02:48:21;26.80;99.50
39453;DHT22;25154;-33.684;151.102;2022-11-15T02:53:25;28.20;98.00
39453;DHT22;25154;-33.684;151.102;2022-11-15T03:09:19;24.80;99.90
39453;DHT22;25154;-33.684;151.102;2022-11-15T03:15:14;23.60;99.90
39453;DHT22;25154;-33.684;151.102;2022-11-15T03:20:09;23.00;99.90
39453;DHT22;25154;-33.684;151.102;2022-11-15T03:25:19;22.50;99.90
39453;DHT22;25154;-33.684;151.102;2022-11-15T03:30:22;22.20;99.90
39453;DHT22;25154;-33.684;151.102;2022-11-15T03:35:27;22.90;99.90
39453;DHT22;25154;-33.684;151.102;2022-11-15T03:40:40;23.20;99.90
39453;DHT22;25154;-33.684;151.102;2022-11-15T03:45:51;24.90;99.90
39453;DHT22;25154;-33.684;151.102;2022-11-15T03:50:57;27.30;99.90
39453;DHT22;25154;-33.684;151.102;2022-11-15T03:55:59;28.00;99.90
39453;DHT22;25154;-33.684;151.102;2022-11-15T04:01:01;26.60;99.90
39453;DHT22;25154;-33.684;151.102;2022-11-15T04:06:04;25.10;99.90
39453;DHT22;25154;-33.684;151.102;2022-11-15T04:11:06;23.80;99.90
39453;DHT22;25154;-33.684;151.102;2022-11-15T04:16:09;23.20;99.90
39453;DHT22;25154;-33.684;151.102;2022-11-15T04:21:13;23.20;99.90
39453;DHT22;25154;-33.684;151.102;2022-11-15T04:26:34;26.00;99.90
39453;DHT22;25154;-33.684;151.102;2022-11-15T04:31:36;28.40;99.90
39453;DHT22;25154;-33.684;151.102;2022-11-15T04:36:39;29.60;98.50
39453;DHT22;25154;-33.684;151.102;2022-11-15T04:42:00;30.10;98.10
39453;DHT22;25154;-33.684;151.102;2022-11-15T04:47:03;31.50;95.00
39453;DHT22;25154;-33.684;151.102;2022-11-15T04:52:06;32.00;95.30
39453;DHT22;25154;-33.684;151.102;2022-11-15T04:57:09;33.10;93.60
39453;DHT22;25154;-33.684;151.102;2022-11-15T05:02:12;33.50;92.30
39453;DHT22;25154;-33.684;151.102;2022-11-15T05:07:15;31.20;94.10
39453;DHT22;25154;-33.684;151.102;2022-11-15T05:12:20;31.20;93.60
39453;DHT22;25154;-33.684;151.102;2022-11-15T05:17:22;31.70;93.90
39453;DHT22;25154;-33.684;151.102;2022-11-15T05:22:25;29.60;94.70
39453;DHT22;25154;-33.684;151.102;2022-11-15T05:27:28;30.20;95.70
39453;DHT22;25154;-33.684;151.102;2022-11-15T05:32:30;30.70;94.10
39453;DHT22;25154;-33.684;151.102;2022-11-15T05:37:33;29.10;95.00
39453;DHT22;25154;-33.684;151.102;2022-11-15T05:42:35;27.10;97.70
39453;DHT22;25154;-33.684;151.102;2022-11-15T05:47:39;25.50;99.90
39453;DHT22;25154;-33.684;151.102;2022-11-15T05:52:41;24.10;99.90
39453;DHT22;25154;-33.684;151.102;2022-11-15T05:57:45;23.20;99.90
39453;DHT22;25154;-33.684;151.102;2022-11-15T06:02:47;24.30;99.90
39453;DHT22;25154;-33.684;151.102;2022-11-15T06:07:50;25.00;99.90
39453;DHT22;25154;-33.684;151.102;2022-11-15T06:13:01;23.50;99.90
39453;DHT22;25154;-33.684;151.102;2022-11-15T06:18:05;22.80;99.90
39453;DHT22;25154;-33.684;151.102;2022-11-15T06:23:09;22.40;99.90
39453;DHT22;25154;-33.684;151.102;2022-11-15T06:28:14;21.90;99.90
39453;DHT22;25154;-33.684;151.102;2022-11-15T06:33:18;21.70;99.90
39453;DHT22;25154;-33.684;151.102;2022-11-15T06:38:22;22.60;99.90
39453;DHT22;25154;-33.684;151.102;2022-11-15T06:43:26;21.70;99.90
39453;DHT22;25154;-33.684;151.102;2022-11-15T06:48:30;21.40;99.90
39453;DHT22;25154;-33.684;151.102;2022-11-15T06:53:35;21.10;99.90
39453;DHT22;25154;-33.684;151.102;2022-11-15T06:58:39;20.90;99.90
39453;DHT22;25154;-33.684;151.102;2022-11-15T07:03:43;20.40;99.90
39453;DHT22;25154;-33.684;151.102;2022-11-15T07:08:48;21.10;99.90
39453;DHT22;25154;-33.684;151.102;2022-11-15T07:13:52;20.80;99.90
39453;DHT22;25154;-33.684;151.102;2022-11-15T07:18:58;20.70;99.90
39453;DHT22;25154;-33.684;151.102;2022-11-15T07:24:02;20.30;99.90
39453;DHT22;25154;-33.684;151.102;2022-11-15T07:29:06;20.10;99.90
39453;DHT22;25154;-33.684;151.102;2022-11-15T07:34:10;20.30;99.90
39453;DHT22;25154;-33.684;151.102;2022-11-15T07:39:13;20.20;99.90
39453;DHT22;25154;-33.684;151.102;2022-11-15T07:44:16;19.90;99.90
39453;DHT22;25154;-33.684;151.102;2022-11-15T07:49:19;19.80;99.90
39453;DHT22;25154;-33.684;151.102;2022-11-15T07:54:22;19.60;99.90
39453;DHT22;25154;-33.684;151.102;2022-11-15T07:59:24;19.50;99.90
39453;DHT22;25154;-33.684;151.102;2022-11-15T08:04:27;19.40;99.90
39453;DHT22;25154;-33.684;151.102;2022-11-15T08:09:31;19.30;99.90
39453;DHT22;25154;-33.684;151.102;2022-11-15T08:14:34;19.30;99.90
39453;DHT22;25154;-33.684;151.102;2022-11-15T08:19:37;19.20;99.90
39453;DHT22;25154;-33.684;151.102;2022-11-15T08:24:40;19.20;99.90
39453;DHT22;25154;-33.684;151.102;2022-11-15T08:29:44;19.10;99.90
39453;DHT22;25154;-33.684;151.102;2022-11-15T08:34:47;18.90;99.90
39453;DHT22;25154;-33.684;151.102;2022-11-15T08:39:49;18.70;99.90
39453;DHT22;25154;-33.684;151.102;2022-11-15T08:44:51;18.60;99.90
39453;DHT22;25154;-33.684;151.102;2022-11-15T08:49:54;18.50;99.90
39453;DHT22;25154;-33.684;151.102;2022-11-15T08:54:56;18.40;99.90
39453;DHT22;25154;-33.684;151.102;2022-11-15T08:59:58;18.30;99.90
39453;DHT22;25154;-33.684;151.102;2022-11-15T09:05:01;18.10;99.90
39453;DHT22;25154;-33.684;151.102;2022-11-15T09:10:03;18.10;99.90
39453;DHT22;25154;-33.684;151.102;2022-11-15T09:15:06;18.00;99.90
39453;DHT22;25154;-33.684;151.102;2022-11-15T09:20:09;18.00;99.90
39453;DHT22;25154;-33.684;151.102;2022-11-15T09:25:12;18.00;99.90
39453;DHT22;25154;-33.684;151.102;2022-11-15T09:30:16;18.10;99.90
39453;DHT22;25154;-33.684;151.102;2022-11-15T09:35:18;18.10;99.90
39453;DHT22;25154;-33.684;151.102;2022-11-15T09:40:21;18.10;99.90
39453;DHT22;25154;-33.684;151.102;2022-11-15T09:45:37;18.00;99.90
39453;DHT22;25154;-33.684;151.102;2022-11-15T09:50:51;17.90;99.90
39453;DHT22;25154;-33.684;151.102;2022-11-15T09:56:02;17.70;99.90
39453;DHT22;25154;-33.684;151.102;2022-11-15T10:01:18;17.60;99.90
39453;DHT22;25154;-33.684;151.102;2022-11-15T10:06:26;17.30;99.90
39453;DHT22;25154;-33.684;151.102;2022-11-15T10:11:32;17.20;99.90
39453;DHT22;25154;-33.684;151.102;2022-11-15T10:27:20;17.00;99.90
39453;DHT22;25154;-33.684;151.102;2022-11-15T10:32:23;15.70;99.90
39453;DHT22;25154;-33.684;151.102;2022-11-15T10:37:30;17.00;99.90
39453;DHT22;25154;-33.684;151.102;2022-11-15T10:42:33;17.10;99.90
39453;DHT22;25154;-33.684;151.102;2022-11-15T10:47:35;17.00;99.90
39453;DHT22;25154;-33.684;151.102;2022-11-15T10:52:45;17.00;99.90
39453;DHT22;25154;-33.684;151.102;2022-11-15T10:58:01;17.10;99.90
39453;DHT22;25154;-33.684;151.102;2022-11-15T11:03:06;17.00;99.90
39453;DHT22;25154;-33.684;151.102;2022-11-15T11:08:24;16.80;99.90
39453;DHT22;25154;-33.684;151.102;2022-11-15T11:13:29;16.70;99.90
39453;DHT22;25154;-33.684;151.102;2022-11-15T11:23:51;16.50;99.90
39453;DHT22;25154;-33.684;151.102;2022-11-15T11:39:52;16.10;99.90
39453;DHT22;25154;-33.684;151.102;2022-11-15T11:50:18;16.00;99.90
39453;DHT22;25154;-33.684;151.102;2022-11-15T11:55:31;16.00;99.90
39453;DHT22;25154;-33.684;151.102;2022-11-15T12:00:40;16.10;99.90
39453;DHT22;25154;-33.684;151.102;2022-11-15T12:05:47;16.10;99.90
39453;DHT22;25154;-33.684;151.102;2022-11-15T12:10:52;16.10;99.90
39453;DHT22;25154;-33.684;151.102;2022-11-15T12:16:17;16.10;99.90
39453;DHT22;25154;-33.684;151.102;2022-11-15T12:26:50;16.00;99.90
39453;DHT22;25154;-33.684;151.102;2022-11-15T12:31:56;16.00;99.90
39453;DHT22;25154;-33.684;151.102;2022-11-15T12:37:01;16.00;99.90
39453;DHT22;25154;-33.684;151.102;2022-11-15T12:47:25;15.60;99.90
39453;DHT22;25154;-33.684;151.102;2022-11-15T12:52:27;15.50;99.90
39453;DHT22;25154;-33.684;151.102;2022-11-15T12:57:32;15.40;99.90
39453;DHT22;25154;-33.684;151.102;2022-11-15T13:02:43;15.20;99.90
39453;DHT22;25154;-33.684;151.102;2022-11-15T13:12:57;14.90;99.90
39453;DHT22;25154;-33.684;151.102;2022-11-15T13:23:22;14.70;99.90
39453;DHT22;25154;-33.684;151.102;2022-11-15T13:33:37;14.60;99.90
39453;DHT22;25154;-33.684;151.102;2022-11-15T13:38:42;14.50;99.90
39453;DHT22;25154;-33.684;151.102;2022-11-15T13:43:45;14.40;99.90
39453;DHT22;25154;-33.684;151.102;2022-11-15T13:48:53;14.20;99.90
39453;DHT22;25154;-33.684;151.102;2022-11-15T13:54:17;14.10;99.90
39453;DHT22;25154;-33.684;151.102;2022-11-15T13:59:29;14.00;99.90
39453;DHT22;25154;-33.684;151.102;2022-11-15T14:04:32;13.80;99.90
39453;DHT22;25154;-33.684;151.102;2022-11-15T14:09:39;13.80;99.90
39453;DHT22;25154;-33.684;151.102;2022-11-15T14:14:47;13.60;99.90
39453;DHT22;25154;-33.684;151.102;2022-11-15T14:19:50;13.40;99.90
39453;DHT22;25154;-33.684;151.102;2022-11-15T14:25:18;13.30;99.90
39453;DHT22;25154;-33.684;151.102;2022-11-15T14:30:20;13.20;99.90
39453;DHT22;25154;-33.684;151.102;2022-11-15T14:35:24;13.10;99.90
39453;DHT22;25154;-33.684;151.102;2022-11-15T14:40:26;13.20;99.90
39453;DHT22;25154;-33.684;151.102;2022-11-15T14:45:28;13.20;99.90
39453;DHT22;25154;-33.684;151.102;2022-11-15T14:50:32;13.10;99.90
39453;DHT22;25154;-33.684;151.102;2022-11-15T14:55:36;13.10;99.90
39453;DHT22;25154;-33.684;151.102;2022-11-15T15:00:40;13.00;99.90
39453;DHT22;25154;-33.684;151.102;2022-11-15T15:05:43;13.00;99.90
39453;DHT22;25154;-33.684;151.102;2022-11-15T15:10:46;12.90;99.90
39453;DHT22;25154;-33.684;151.102;2022-11-15T15:15:49;13.00;99.90
39453;DHT22;25154;-33.684;151.102;2022-11-15T15:20:57;13.00;99.90
39453;DHT22;25154;-33.684;151.102;2022-11-15T15:26:09;12.90;99.90
39453;DHT22;25154;-33.684;151.102;2022-11-15T15:31:11;12.90;99.90
39453;DHT22;25154;-33.684;151.102;2022-11-15T15:36:16;12.80;99.90
39453;DHT22;25154;-33.684;151.102;2022-11-15T15:41:19;12.70;99.90
39453;DHT22;25154;-33.684;151.102;2022-11-15T15:46:22;12.70;99.90
39453;DHT22;25154;-33.684;151.102;2022-11-15T15:51:24;12.60;99.90
39453;DHT22;25154;-33.684;151.102;2022-11-15T15:56:27;12.50;99.90
39453;DHT22;25154;-33.684;151.102;2022-11-15T16:01:29;12.40;99.90
39453;DHT22;25154;-33.684;151.102;2022-11-15T16:06:39;12.30;99.90
39453;DHT22;25154;-33.684;151.102;2022-11-15T16:11:46;12.30;99.90
39453;DHT22;25154;-33.684;151.102;2022-11-15T16:16:48;12.20;99.90
39453;DHT22;25154;-33.684;151.102;2022-11-15T16:21:51;12.10;99.90
39453;DHT22;25154;-33.684;151.102;2022-11-15T16:26:56;11.90;99.90
39453;DHT22;25154;-33.684;151.102;2022-11-15T16:31:58;11.80;99.90
39453;DHT22;25154;-33.684;151.102;2022-11-15T16:37:01;11.60;99.90
39453;DHT22;25154;-33.684;151.102;2022-11-15T16:42:03;11.60;99.90
39453;DHT22;25154;-33.684;151.102;2022-11-15T16:47:11;11.60;99.90
39453;DHT22;25154;-33.684;151.102;2022-11-15T16:52:14;11.90;99.90
39453;DHT22;25154;-33.684;151.102;2022-11-15T16:57:16;11.90;99.90
39453;DHT22;25154;-33.684;151.102;2022-11-15T17:02:18;11.90;99.90
39453;DHT22;25154;-33.684;151.102;2022-11-15T17:07:21;11.90;99.90
39453;DHT22;25154;-33.684;151.102;2022-11-15T17:12:24;11.80;99.90
39453;DHT22;25154;-33.684;151.102;2022-11-15T17:17:26;11.80;99.90
39453;DHT22;25154;-33.684;151.102;2022-11-15T17:22:29;11.80;99.90
39453;DHT22;25154;-33.684;151.102;2022-11-15T17:27:31;11.70;99.90
39453;DHT22;25154;-33.684;151.102;2022-11-15T17:32:37;11.60;99.90
39453;DHT22;25154;-33.684;151.102;2022-11-15T17:37:39;11.40;99.90
39453;DHT22;25154;-33.684;151.102;2022-11-15T17:42:41;11.30;99.90
39453;DHT22;25154;-33.684;151.102;2022-11-15T17:47:43;11.20;99.90
39453;DHT22;25154;-33.684;151.102;2022-11-15T17:52:46;11.00;99.90
39453;DHT22;25154;-33.684;151.102;2022-11-15T17:57:48;10.80;99.90
39453;DHT22;25154;-33.684;151.102;2022-11-15T18:02:50;10.60;99.90
39453;DHT22;25154;-33.684;151.102;2022-11-15T18:07:53;10.60;99.90
39453;DHT22;25154;-33.684;151.102;2022-11-15T18:12:57;10.50;99.90
39453;DHT22;25154;-33.684;151.102;2022-11-15T18:18:00;10.50;99.90
39453;DHT22;25154;-33.684;151.102;2022-11-15T18:23:04;10.50;99.90
39453;DHT22;25154;-33.684;151.102;2022-11-15T18:28:08;10.40;99.90
39453;DHT22;25154;-33.684;151.102;2022-11-15T18:33:10;10.30;99.90
39453;DHT22;25154;-33.684;151.102;2022-11-15T18:38:13;10.20;99.90
39453;DHT22;25154;-33.684;151.102;2022-11-15T18:43:15;10.30;99.90
39453;DHT22;25154;-33.684;151.102;2022-11-15T18:48:17;10.20;99.90
39453;DHT22;25154;-33.684;151.102;2022-11-15T18:53:20;10.20;99.90
39453;DHT22;25154;-33.684;151.102;2022-11-15T18:58:22;10.10;99.90
39453;DHT22;25154;-33.684;151.102;2022-11-15T19:03:25;10.00;99.90
39453;DHT22;25154;-33.684;151.102;2022-11-15T19:08:27;10.00;99.90
39453;DHT22;25154;-33.684;151.102;2022-11-15T19:13:29;10.00;99.90
39453;DHT22;25154;-33.684;151.102;2022-11-15T19:18:33;10.00;99.90
39453;DHT22;25154;-33.684;151.102;2022-11-15T19:23:37;10.00;99.90
39453;DHT22;25154;-33.684;151.102;2022-11-15T19:28:41;10.20;99.90
39453;DHT22;25154;-33.684;151.102;2022-11-15T19:33:45;10.30;99.90
39453;DHT22;25154;-33.684;151.102;2022-11-15T19:38:50;10.20;99.90
39453;DHT22;25154;-33.684;151.102;2022-11-15T19:43:53;10.30;99.90
39453;DHT22;25154;-33.684;151.102;2022-11-15T19:48:57;10.40;99.90
39453;DHT22;25154;-33.684;151.102;2022-11-15T19:54:01;10.70;99.90
39453;DHT22;25154;-33.684;151.102;2022-11-15T19:59:09;11.00;99.90
39453;DHT22;25154;-33.684;151.102;2022-11-15T20:04:14;11.30;99.90
39453;DHT22;25154;-33.684;151.102;2022-11-15T20:09:17;11.60;99.90
39453;DHT22;25154;-33.684;151.102;2022-11-15T20:14:21;12.00;99.90
39453;DHT22;25154;-33.684;151.102;2022-11-15T20:19:26;12.20;98.60
39453;DHT22;25154;-33.684;151.102;2022-11-15T20:24:30;12.40;98.10
39453;DHT22;25154;-33.684;151.102;2022-11-15T20:29:33;12.60;97.30
39453;DHT22;25154;-33.684;151.102;2022-11-15T20:34:36;12.80;96.30
39453;DHT22;25154;-33.684;151.102;2022-11-15T20:39:38;10.90;96.70
39453;DHT22;25154;-33.684;151.102;2022-11-15T20:44:41;13.20;96.40
39453;DHT22;25154;-33.684;151.102;2022-11-15T20:49:44;13.40;97.00
39453;DHT22;25154;-33.684;151.102;2022-11-15T20:54:47;13.50;95.50
39453;DHT22;25154;-33.684;151.102;2022-11-15T20:59:50;13.60;95.20
39453;DHT22;25154;-33.684;151.102;2022-11-15T21:04:52;13.70;94.60
39453;DHT22;25154;-33.684;151.102;2022-11-15T21:09:55;13.90;95.20
39453;DHT22;25154;-33.684;151.102;2022-11-15T21:15:15;13.90;94.90
39453;DHT22;25154;-33.684;151.102;2022-11-15T21:20:17;14.30;95.40
39453;DHT22;25154;-33.684;151.102;2022-11-15T21:25:20;14.20;94.40
39453;DHT22;25154;-33.684;151.102;2022-11-15T21:30:22;14.30;94.70
39453;DHT22;25154;-33.684;151.102;2022-11-15T21:35:24;14.60;94.10
39453;DHT22;25154;-33.684;151.102;2022-11-15T21:40:27;14.90;93.70
39453;DHT22;25154;-33.684;151.102;2022-11-15T21:45:29;15.10;93.30
39453;DHT22;25154;-33.684;151.102;2022-11-15T21:50:31;15.20;93.70
39453;DHT22;25154;-33.684;151.102;2022-11-15T21:55:34;15.60;93.90
39453;DHT22;25154;-33.684;151.102;2022-11-15T22:00:39;15.70;92.70
39453;DHT22;25154;-33.684;151.102;2022-11-15T22:06:01;15.60;92.30
39453;DHT22;25154;-33.684;151.102;2022-11-15T22:11:04;15.50;91.80
39453;DHT22;25154;-33.684;151.102;2022-11-15T22:16:08;15.80;92.00
39453;DHT22;25154;-33.684;151.102;2022-11-15T22:21:13;16.00;92.00
39453;DHT22;25154;-33.684;151.102;2022-11-15T22:26:17;16.40;93.20
39453;DHT22;25154;-33.684;151.102;2022-11-15T22:31:20;16.40;92.00
39453;DHT22;25154;-33.684;151.102;2022-11-15T22:36:23;16.30;91.70
39453;DHT22;25154;-33.684;151.102;2022-11-15T22:41:26;16.60;90.40
39453;DHT22;25154;-33.684;151.102;2022-11-15T22:46:29;16.40;90.10
39453;DHT22;25154;-33.684;151.102;2022-11-15T22:51:31;16.20;90.70
39453;DHT22;25154;-33.684;151.102;2022-11-15T22:56:34;16.60;90.80
39453;DHT22;25154;-33.684;151.102;2022-11-15T23:01:37;16.90;90.50
39453;DHT22;25154;-33.684;151.102;2022-11-15T23:06:40;17.30;91.10
39453;DHT22;25154;-33.684;151.102;2022-11-15T23:11:44;17.50;88.60
39453;DHT22;25154;-33.684;151.102;2022-11-15T23:17:05;17.20;88.80
39453;DHT22;25154;-33.684;151.102;2022-11-15T23:22:08;17.70;89.40
39453;DHT22;25154;-33.684;151.102;2022-11-15T23:27:28;17.90;85.90
39453;DHT22;25154;-33.684;151.102;2022-11-15T23:32:31;17.70;85.60
39453;DHT22;25154;-33.684;151.102;2022-11-15T23:37:52;17.90;86.00
39453;DHT22;25154;-33.684;151.102;2022-11-15T23:42:56;18.20;85.30
39453;DHT22;25154;-33.684;151.102;2022-11-15T23:47:59;18.60;85.40
39453;DHT22;25154;-33.684;151.102;2022-11-15T23:53:02;18.70;85.00
39453;DHT22;25154;-33.684;151.102;2022-11-15T23:58:05;18.70;84.40
